createdAt,value
2022-08-23T00:00:24.405Z,119.71
2022-08-23T00:01:19.589Z,118.52
2022-08-23T00:02:23.466Z,117.11
2022-08-23T00:03:10.949Z,117.19
2022-08-23T00:04:04.901Z,116.86
2022-08-23T00:05:09.357Z,118.18
2022-08-23T00:05:56.029Z,119.03
2022-08-23T00:06:50.110Z,118.69
2022-08-23T00:07:45.576Z,118.60
2022-08-23T00:08:40.610Z,118.60
2022-08-23T00:09:36.808Z,118.18
2022-08-23T00:10:31.047Z,119.20
2022-08-23T00:11:26.350Z,120.57
2022-08-23T00:12:21.622Z,122.43
2022-08-23T00:13:18.070Z,123.52
2022-08-23T00:14:13.209Z,122.52
2022-08-23T00:15:08.837Z,122.34
2022-08-23T00:16:07.854Z,122.25
2022-08-23T00:17:03.025Z,122.79
2022-08-23T00:17:58.510Z,121.90
2022-08-23T00:18:53.498Z,122.43
2022-08-23T00:19:48.507Z,122.61
2022-08-23T00:20:43.518Z,121.28
2022-08-23T00:21:38.545Z,121.01
2022-08-23T00:22:33.573Z,121.19
2022-08-23T00:23:28.595Z,120.23
2022-08-23T00:24:23.774Z,121.19
2022-08-23T00:25:18.823Z,122.25
2022-08-23T00:26:13.858Z,124.35
2022-08-23T00:27:08.874Z,124.72
2022-08-23T00:28:05.163Z,124.16
2022-08-23T00:29:01.196Z,123.25
2022-08-23T00:29:55.279Z,122.52
2022-08-23T00:30:50.304Z,121.72
2022-08-23T00:31:46.273Z,120.23
2022-08-23T00:32:41.565Z,120.57
2022-08-23T00:33:36.721Z,120.66
2022-08-23T00:34:32.000Z,122.25
2022-08-23T00:35:27.883Z,122.79
2022-08-23T00:36:23.023Z,123.25
2022-08-23T00:37:18.302Z,123.25
2022-08-23T00:38:34.079Z,123.34
2022-08-23T00:39:09.740Z,123.43
2022-08-23T00:40:04.013Z,124.72
2022-08-23T00:40:59.128Z,124.44
2022-08-23T00:41:54.455Z,123.89
2022-08-23T00:42:49.755Z,124.81
2022-08-23T00:43:44.900Z,126.32
2022-08-23T00:44:40.210Z,127.29
2022-08-23T00:45:35.244Z,126.52
2022-08-23T00:46:30.257Z,124.72
2022-08-23T00:47:25.288Z,124.72
2022-08-23T00:48:20.365Z,124.35
2022-08-23T00:49:15.487Z,124.07
2022-08-23T00:50:19.349Z,124.35
2022-08-23T00:51:06.718Z,120.92
2022-08-23T00:52:00.856Z,120.23
2022-08-23T00:52:55.875Z,120.31
2022-08-23T00:53:50.871Z,120.84
2022-08-23T00:54:45.937Z,121.63
2022-08-23T00:55:40.922Z,122.34
2022-08-23T00:56:35.947Z,123.70
2022-08-23T00:57:30.991Z,124.63
2022-08-23T00:58:26.012Z,124.16
2022-08-23T00:59:21.033Z,123.06
2022-08-23T01:00:16.068Z,125.56
2022-08-23T01:01:11.072Z,125.75
2022-08-23T01:02:06.184Z,126.23
2022-08-23T01:03:01.147Z,127.97
2022-08-23T01:04:03.048Z,127.48
2022-08-23T01:04:52.571Z,128.07
2022-08-23T01:05:46.781Z,128.17
2022-08-23T01:06:41.988Z,129.26
2022-08-23T01:07:37.874Z,129.66
2022-08-23T01:08:32.921Z,129.46
2022-08-23T01:09:28.902Z,128.37
2022-08-23T01:10:24.061Z,129.86
2022-08-23T01:11:19.238Z,130.07
2022-08-23T01:12:14.973Z,127.00
2022-08-23T01:13:10.279Z,126.42
2022-08-23T01:14:05.691Z,125.85
2022-08-23T01:15:01.834Z,127.39
2022-08-23T01:15:57.139Z,126.61
2022-08-23T01:16:53.037Z,125.09
2022-08-23T01:17:48.176Z,125.94
2022-08-23T01:18:43.598Z,123.70
2022-08-23T01:19:39.356Z,124.91
2022-08-23T01:20:34.622Z,124.72
2022-08-23T01:21:30.493Z,128.17
2022-08-23T01:22:25.652Z,129.36
2022-08-23T01:23:21.096Z,128.76
2022-08-23T01:24:19.225Z,130.17
2022-08-23T01:25:13.854Z,128.76
2022-08-23T01:26:08.065Z,129.06
2022-08-23T01:27:03.065Z,128.76
2022-08-23T01:27:58.162Z,129.26
2022-08-23T01:28:53.107Z,129.36
2022-08-23T01:29:48.135Z,129.16
2022-08-23T01:30:43.185Z,129.46
2022-08-23T01:31:38.220Z,131.71
2022-08-23T01:32:33.265Z,132.44
2022-08-23T01:33:33.964Z,133.71
2022-08-23T01:34:29.284Z,133.39
2022-08-23T01:36:20.217Z,133.07
2022-08-23T01:37:15.503Z,134.58
2022-08-23T01:38:10.665Z,133.61
2022-08-23T01:39:07.250Z,134.14
2022-08-23T01:40:02.470Z,133.93
2022-08-23T01:40:58.265Z,133.50
2022-08-23T01:41:53.411Z,135.34
2022-08-23T01:42:48.594Z,134.79
2022-08-23T01:43:44.446Z,133.50
2022-08-23T01:44:39.742Z,135.01
2022-08-23T01:45:35.439Z,134.14
2022-08-23T01:46:30.712Z,136.45
2022-08-23T01:47:25.894Z,135.34
2022-08-23T01:48:21.748Z,132.97
2022-08-23T01:49:16.936Z,134.36
2022-08-23T01:50:12.119Z,134.68
2022-08-23T01:51:08.383Z,131.19
2022-08-23T01:52:03.678Z,131.40
2022-08-23T01:52:59.800Z,132.02
2022-08-23T01:53:54.785Z,132.97
2022-08-23T01:54:50.115Z,131.19
2022-08-23T01:55:45.136Z,132.55
2022-08-23T01:56:40.157Z,131.29
2022-08-23T01:57:40.125Z,132.34
2022-08-23T01:58:35.148Z,132.97
2022-08-23T01:59:30.471Z,134.25
2022-08-23T02:00:26.214Z,136.78
2022-08-23T02:01:21.565Z,135.34
2022-08-23T02:02:16.867Z,138.37
2022-08-23T02:03:12.049Z,138.37
2022-08-23T02:04:08.562Z,140.70
2022-08-23T02:05:03.834Z,139.64
2022-08-23T02:05:59.028Z,140.70
2022-08-23T02:06:54.870Z,136.34
2022-08-23T02:07:50.067Z,136.90
2022-08-23T02:08:45.185Z,132.65
2022-08-23T02:09:41.600Z,130.88
2022-08-23T02:10:36.951Z,130.47
2022-08-23T02:11:32.800Z,126.32
2022-08-23T02:12:27.959Z,127.87
2022-08-23T02:13:23.159Z,127.78
2022-08-23T02:14:18.907Z,127.09
2022-08-23T02:15:14.192Z,126.52
2022-08-23T02:16:10.159Z,127.29
2022-08-23T02:17:05.280Z,126.52
2022-08-23T02:18:01.288Z,127.19
2022-08-23T02:18:56.405Z,127.29
2022-08-23T02:19:51.539Z,127.97
2022-08-23T02:20:46.821Z,126.52
2022-08-23T02:21:41.967Z,126.52
2022-08-23T02:22:36.986Z,126.71
2022-08-23T02:23:32.074Z,127.39
2022-08-23T02:24:27.104Z,129.56
2022-08-23T02:25:22.106Z,131.40
2022-08-23T02:26:17.150Z,133.61
2022-08-23T02:27:12.187Z,133.50
2022-08-23T02:28:07.245Z,133.29
2022-08-23T02:29:02.261Z,133.50
2022-08-23T02:29:57.295Z,133.61
2022-08-23T02:30:52.344Z,132.23
2022-08-23T02:31:47.381Z,129.96
2022-08-23T02:32:42.395Z,128.76
2022-08-23T02:33:37.425Z,128.96
2022-08-23T02:34:32.435Z,128.96
2022-08-23T02:35:27.644Z,129.16
2022-08-23T02:36:22.679Z,130.47
2022-08-23T02:37:17.797Z,130.99
2022-08-23T02:38:12.845Z,131.60
2022-08-23T02:39:08.667Z,132.02
2022-08-23T02:40:03.883Z,132.44
2022-08-23T02:41:00.731Z,132.65
2022-08-23T02:41:55.653Z,132.65
2022-08-23T02:42:50.790Z,133.18
2022-08-23T02:43:46.091Z,133.82
2022-08-23T02:44:41.260Z,135.34
2022-08-23T02:45:36.550Z,135.89
2022-08-23T02:46:31.821Z,136.00
2022-08-23T02:47:27.269Z,136.67
2022-08-23T02:48:22.337Z,138.14
2022-08-23T02:49:17.467Z,138.03
2022-08-23T02:50:12.627Z,138.14
2022-08-23T02:51:07.898Z,139.06
2022-08-23T02:52:03.072Z,138.95
2022-08-23T02:52:58.241Z,138.03
2022-08-23T02:53:53.524Z,138.49
2022-08-23T02:54:48.971Z,138.72
2022-08-23T02:55:44.136Z,138.37
2022-08-23T02:56:39.404Z,137.91
2022-08-23T02:57:34.720Z,138.83
2022-08-23T02:58:29.896Z,138.26
2022-08-23T02:59:25.180Z,139.06
2022-08-23T03:00:20.345Z,138.60
2022-08-23T03:01:15.626Z,139.88
2022-08-23T03:02:10.855Z,139.41
2022-08-23T03:03:06.012Z,140.59
2022-08-23T03:04:01.288Z,142.75
2022-08-23T03:04:56.464Z,143.49
2022-08-23T03:05:51.725Z,144.23
2022-08-23T03:06:47.328Z,145.49
2022-08-23T03:07:42.212Z,144.23
2022-08-23T03:08:37.364Z,143.12
2022-08-23T03:09:32.526Z,143.24
2022-08-23T03:10:27.681Z,142.14
2022-08-23T03:11:23.012Z,141.90
2022-08-23T03:12:18.069Z,141.66
2022-08-23T03:13:13.199Z,142.02
2022-08-23T03:14:08.364Z,142.87
2022-08-23T03:15:03.662Z,143.73
2022-08-23T03:15:58.854Z,143.86
2022-08-23T03:16:54.060Z,142.38
2022-08-23T03:17:49.291Z,141.66
2022-08-23T03:18:44.471Z,141.18
2022-08-23T03:19:39.620Z,141.78
2022-08-23T03:20:34.911Z,142.87
2022-08-23T03:21:30.091Z,143.49
2022-08-23T03:22:25.618Z,143.86
2022-08-23T03:23:20.768Z,142.87
2022-08-23T03:24:15.951Z,143.86
2022-08-23T03:25:11.083Z,144.86
2022-08-23T03:26:06.251Z,146.00
2022-08-23T03:27:01.245Z,145.11
2022-08-23T03:27:56.457Z,145.87
2022-08-23T03:28:51.476Z,146.12
2022-08-23T03:29:46.487Z,147.29
2022-08-23T03:30:41.550Z,146.00
2022-08-23T03:31:36.567Z,143.12
2022-08-23T03:32:31.912Z,141.90
2022-08-23T03:33:27.636Z,142.51
2022-08-23T03:34:22.635Z,143.98
2022-08-23T03:35:17.647Z,145.62
2022-08-23T03:36:12.664Z,146.64
2022-08-23T03:37:07.713Z,148.46
2022-08-23T03:38:02.961Z,148.46
2022-08-23T03:38:57.783Z,149.80
2022-08-23T03:39:52.826Z,149.00
2022-08-23T03:40:47.863Z,150.88
2022-08-23T03:41:42.861Z,151.71
2022-08-23T03:42:38.033Z,151.84
2022-08-23T03:43:33.245Z,152.96
2022-08-23T03:44:29.089Z,153.10
2022-08-23T03:45:24.258Z,152.40
2022-08-23T03:46:19.543Z,151.02
2022-08-23T03:47:15.463Z,150.20
2022-08-23T03:48:10.623Z,149.00
2022-08-23T03:49:06.045Z,148.07
2022-08-23T03:50:02.174Z,147.42
2022-08-23T03:50:57.480Z,147.16
2022-08-23T03:51:53.372Z,147.03
2022-08-23T03:52:48.507Z,147.16
2022-08-23T03:53:43.955Z,149.40
2022-08-23T03:54:39.701Z,148.07
2022-08-23T03:55:35.008Z,148.46
2022-08-23T03:56:31.781Z,148.07
2022-08-23T03:57:26.041Z,149.80
2022-08-23T03:58:21.357Z,150.88
2022-08-23T03:59:17.782Z,150.34
2022-08-23T04:00:13.066Z,149.26
2022-08-23T04:01:08.225Z,147.55
2022-08-23T04:02:04.787Z,146.77
2022-08-23T04:03:00.000Z,147.16
2022-08-23T04:03:55.853Z,147.68
2022-08-23T04:04:51.117Z,149.93
2022-08-23T04:05:46.347Z,152.40
2022-08-23T04:06:42.145Z,153.66
2022-08-23T04:07:37.443Z,153.38
2022-08-23T04:08:33.806Z,154.80
2022-08-23T04:09:28.456Z,156.54
2022-08-23T04:10:23.706Z,156.84
2022-08-23T04:11:20.155Z,156.10
2022-08-23T04:12:17.451Z,158.03
2022-08-23T04:13:10.608Z,158.78
2022-08-23T04:14:05.666Z,157.28
2022-08-23T04:15:02.454Z,156.69
2022-08-23T04:15:55.988Z,158.32
2022-08-23T04:16:50.901Z,159.54
2022-08-23T04:17:46.069Z,160.61
2022-08-23T04:18:41.178Z,158.32
2022-08-23T04:19:36.285Z,155.96
2022-08-23T04:20:31.356Z,155.38
2022-08-23T04:21:26.398Z,156.10
2022-08-23T04:22:21.561Z,157.88
2022-08-23T04:23:16.600Z,157.43
2022-08-23T04:24:13.202Z,157.13
2022-08-23T04:25:33.111Z,156.69
2022-08-23T04:26:04.411Z,155.23
2022-08-23T04:26:59.464Z,153.10
2022-08-23T04:27:54.802Z,153.38
2022-08-23T04:28:50.135Z,154.23
2022-08-23T04:29:46.425Z,151.71
2022-08-23T04:30:41.776Z,152.26
2022-08-23T04:31:37.525Z,150.07
2022-08-23T04:32:32.857Z,150.74
2022-08-23T04:33:28.165Z,150.47
2022-08-23T04:34:24.990Z,149.13
2022-08-23T04:35:20.327Z,149.40
2022-08-23T04:36:16.081Z,150.34
2022-08-23T04:37:11.380Z,149.80
2022-08-23T04:38:24.029Z,150.47
2022-08-23T04:39:03.494Z,150.07
2022-08-23T04:39:57.988Z,149.66
2022-08-23T04:40:53.303Z,151.15
2022-08-23T04:41:49.762Z,151.43
2022-08-23T04:42:45.089Z,153.52
2022-08-23T04:43:40.831Z,153.94
2022-08-23T04:44:36.182Z,153.38
2022-08-23T04:45:31.540Z,149.66
2022-08-23T04:46:26.574Z,148.73
2022-08-23T04:47:21.645Z,148.07
2022-08-23T04:48:16.723Z,148.73
2022-08-23T04:49:11.796Z,149.53
2022-08-23T04:50:06.875Z,150.34
2022-08-23T04:51:01.971Z,148.73
2022-08-23T04:51:57.041Z,148.73
2022-08-23T04:52:52.259Z,149.00
2022-08-23T04:53:47.252Z,149.00
2022-08-23T04:54:42.360Z,147.29
2022-08-23T04:55:37.368Z,146.00
2022-08-23T04:56:32.496Z,147.42
2022-08-23T04:57:27.584Z,148.20
2022-08-23T04:58:22.718Z,147.68
2022-08-23T04:59:21.440Z,148.60
2022-08-23T05:00:16.545Z,149.13
2022-08-23T05:01:11.600Z,151.02
2022-08-23T05:02:06.557Z,151.29
2022-08-23T05:03:01.664Z,151.15
2022-08-23T05:03:56.755Z,152.12
2022-08-23T05:04:51.767Z,153.52
2022-08-23T05:05:48.215Z,152.96
2022-08-23T05:06:43.614Z,153.24
2022-08-23T05:07:42.160Z,154.51
2022-08-23T05:08:34.752Z,155.09
2022-08-23T05:09:30.154Z,154.66
2022-08-23T05:10:25.920Z,154.37
2022-08-23T05:11:21.327Z,156.10
2022-08-23T05:12:16.714Z,158.03
2022-08-23T05:13:13.509Z,158.48
2022-08-23T05:14:07.939Z,157.58
2022-08-23T05:15:03.300Z,159.38
2022-08-23T05:15:59.683Z,159.08
2022-08-23T05:16:55.084Z,159.99
2022-08-23T05:17:50.864Z,157.43
2022-08-23T05:18:46.279Z,153.10
2022-08-23T05:19:44.306Z,153.94
2022-08-23T05:20:38.483Z,152.54
2022-08-23T05:21:32.898Z,149.00
2022-08-23T05:22:28.847Z,144.98
2022-08-23T05:23:31.882Z,143.12
2022-08-23T05:24:20.549Z,143.12
2022-08-23T05:25:15.427Z,144.86
2022-08-23T05:26:10.839Z,142.87
2022-08-23T05:27:08.651Z,141.90
2022-08-23T05:28:02.666Z,143.12
2022-08-23T05:28:58.072Z,144.23
2022-08-23T05:29:53.889Z,144.86
2022-08-23T05:30:56.386Z,146.90
2022-08-23T05:31:46.314Z,148.20
2022-08-23T05:32:40.665Z,149.26
2022-08-23T05:33:36.384Z,150.47
2022-08-23T05:34:31.826Z,151.71
2022-08-23T05:35:27.424Z,152.26
2022-08-23T05:36:23.008Z,152.40
2022-08-23T05:37:18.423Z,151.57
2022-08-23T05:38:17.721Z,149.93
2022-08-23T05:39:10.592Z,128.17
2022-08-23T05:40:06.458Z,120.75
2022-08-23T05:41:00.904Z,122.07
2022-08-23T05:41:56.756Z,126.23
2022-08-23T05:42:52.061Z,129.46
2022-08-23T05:43:47.478Z,133.50
2022-08-23T05:44:43.404Z,135.56
2022-08-23T05:45:38.704Z,137.23
2022-08-23T05:46:34.101Z,138.14
2022-08-23T05:47:33.793Z,135.67
2022-08-23T05:48:26.149Z,132.65
2022-08-23T05:49:22.048Z,130.78
2022-08-23T05:50:17.498Z,129.06
2022-08-23T05:51:12.928Z,129.06
2022-08-23T05:52:08.638Z,127.39
2022-08-23T05:53:08.008Z,126.04
2022-08-23T05:54:03.476Z,126.04
2022-08-23T05:54:58.910Z,126.52
2022-08-23T05:55:54.779Z,128.46
2022-08-23T05:56:50.181Z,126.90
2022-08-23T05:57:45.586Z,127.97
2022-08-23T05:58:41.877Z,127.39
2022-08-23T05:59:37.381Z,129.76
2022-08-23T06:00:37.928Z,130.17
2022-08-23T06:01:29.771Z,128.56
2022-08-23T06:02:24.133Z,130.47
2022-08-23T06:03:20.674Z,127.78
2022-08-23T06:04:16.110Z,126.81
2022-08-23T06:05:11.975Z,124.91
2022-08-23T06:06:07.308Z,123.15
2022-08-23T06:07:02.768Z,122.07
2022-08-23T06:07:58.566Z,120.57
2022-08-23T06:08:53.906Z,118.94
2022-08-23T06:09:49.383Z,116.05
2022-08-23T06:10:44.840Z,117.02
2022-08-23T06:11:40.285Z,116.05
2022-08-23T06:12:39.644Z,116.21
2022-08-23T06:13:35.087Z,116.53
2022-08-23T06:14:30.774Z,118.60
2022-08-23T06:15:26.286Z,119.20
2022-08-23T06:16:22.561Z,119.11
2022-08-23T06:17:17.994Z,118.52
2022-08-23T06:18:13.408Z,118.77
2022-08-23T06:19:09.169Z,119.71
2022-08-23T06:20:04.633Z,119.11
2022-08-23T06:21:00.069Z,121.01
2022-08-23T06:21:55.512Z,121.81
2022-08-23T06:22:50.532Z,121.10
2022-08-23T06:23:45.570Z,124.16
2022-08-23T06:24:40.802Z,128.86
2022-08-23T06:25:35.828Z,129.26
2022-08-23T06:26:30.919Z,132.55
2022-08-23T06:27:28.930Z,133.93
2022-08-23T06:28:25.858Z,132.65
2022-08-23T06:29:19.314Z,130.68
2022-08-23T06:30:14.219Z,128.76
2022-08-23T06:31:09.292Z,129.06
2022-08-23T06:32:04.255Z,125.56
2022-08-23T06:32:59.265Z,121.19
2022-08-23T06:33:54.413Z,119.71
2022-08-23T06:34:49.413Z,122.97
2022-08-23T06:35:44.435Z,123.61
2022-08-23T06:36:39.632Z,126.42
2022-08-23T06:37:35.061Z,123.79
2022-08-23T06:38:31.056Z,121.72
2022-08-23T06:39:26.526Z,118.27
2022-08-23T06:40:21.983Z,117.60
2022-08-23T06:41:17.720Z,120.05
2022-08-23T06:42:37.553Z,121.28
2022-08-23T06:43:10.018Z,122.52
2022-08-23T06:44:04.373Z,120.14
2022-08-23T06:44:59.802Z,120.57
2022-08-23T06:45:58.387Z,128.76
2022-08-23T06:46:51.691Z,125.28
2022-08-23T06:47:47.101Z,117.60
2022-08-23T06:48:43.401Z,121.01
2022-08-23T06:49:38.852Z,135.12
2022-08-23T06:50:34.684Z,150.07
2022-08-23T06:51:30.150Z,167.71
2022-08-23T06:52:25.720Z,182.78
2022-08-23T06:53:21.438Z,191.03
2022-08-23T06:54:16.974Z,191.92
2022-08-23T06:55:13.885Z,204.10
2022-08-23T06:56:08.219Z,207.98
2022-08-23T06:57:03.643Z,207.71
2022-08-23T06:58:00.412Z,206.15
2022-08-23T06:58:55.621Z,212.42
2022-08-23T06:59:51.072Z,219.09
2022-08-23T07:00:47.380Z,218.50
2022-08-23T07:01:46.076Z,216.63
2022-08-23T07:02:38.638Z,213.39
2022-08-23T07:03:36.526Z,219.82
2022-08-23T07:04:29.479Z,226.65
2022-08-23T07:05:24.386Z,224.95
2022-08-23T07:06:19.405Z,208.90
2022-08-23T07:07:18.911Z,205.37
2022-08-23T07:08:14.446Z,210.51
2022-08-23T07:09:09.781Z,215.77
2022-08-23T07:10:05.495Z,223.11
2022-08-23T07:11:00.963Z,221.60
2022-08-23T07:11:56.554Z,220.12
2022-08-23T07:12:52.942Z,216.49
2022-08-23T07:13:48.509Z,214.79
2022-08-23T07:14:44.084Z,210.51
2022-08-23T07:15:39.478Z,203.09
2022-08-23T07:16:35.058Z,203.59
2022-08-23T07:17:30.829Z,206.67
2022-08-23T07:18:26.313Z,204.99
2022-08-23T07:19:22.013Z,221.01
2022-08-23T07:20:18.411Z,216.91
2022-08-23T07:21:13.138Z,219.67
2022-08-23T07:22:08.650Z,221.30
2022-08-23T07:23:04.440Z,216.06
2022-08-23T07:23:59.888Z,200.11
2022-08-23T07:24:55.399Z,186.26
2022-08-23T07:25:51.198Z,182.18
2022-08-23T07:26:46.627Z,177.53
2022-08-23T07:27:42.028Z,176.96
2022-08-23T07:28:38.289Z,179.05
2022-08-23T07:29:33.689Z,182.38
2022-08-23T07:30:29.211Z,180.21
2022-08-23T07:31:24.391Z,177.90
2022-08-23T07:32:19.413Z,175.29
2022-08-23T07:33:14.533Z,179.05
2022-08-23T07:34:09.613Z,182.18
2022-08-23T07:35:04.586Z,185.01
2022-08-23T07:35:59.616Z,183.38
2022-08-23T07:36:54.626Z,181.19
2022-08-23T07:37:49.684Z,175.10
2022-08-23T07:38:45.431Z,164.57
2022-08-23T07:39:39.889Z,159.38
2022-08-23T07:40:38.629Z,155.96
2022-08-23T07:41:31.129Z,159.54
2022-08-23T07:42:25.904Z,156.84
2022-08-23T07:43:21.753Z,151.02
2022-08-23T07:44:18.194Z,149.00
2022-08-23T07:45:13.040Z,146.12
2022-08-23T07:46:08.252Z,143.36
2022-08-23T07:47:03.566Z,141.30
2022-08-23T07:47:58.645Z,135.89
2022-08-23T07:48:54.790Z,138.60
2022-08-23T07:49:48.723Z,142.14
2022-08-23T07:50:54.799Z,141.42
2022-08-23T07:51:39.863Z,151.02
2022-08-23T07:52:33.894Z,160.15
2022-08-23T07:53:37.359Z,163.44
2022-08-23T07:54:25.864Z,162.33
2022-08-23T07:55:22.180Z,157.43
2022-08-23T07:56:17.569Z,166.21
2022-08-23T07:57:13.101Z,170.98
2022-08-23T07:58:08.674Z,179.82
2022-08-23T07:59:03.641Z,178.48
2022-08-23T07:59:58.650Z,179.63
2022-08-23T08:00:53.749Z,182.78
2022-08-23T08:01:48.789Z,182.98
2022-08-23T08:02:43.805Z,183.99
2022-08-23T08:03:38.858Z,198.18
2022-08-23T08:04:33.850Z,207.19
2022-08-23T08:05:28.983Z,217.49
2022-08-23T08:06:24.089Z,222.81
2022-08-23T08:07:20.949Z,225.56
2022-08-23T08:08:14.227Z,234.76
2022-08-23T08:09:09.238Z,242.57
2022-08-23T08:10:04.268Z,244.56
2022-08-23T08:10:59.258Z,246.58
2022-08-23T08:11:54.369Z,247.70
2022-08-23T08:12:49.379Z,253.05
2022-08-23T08:13:44.468Z,262.36
2022-08-23T08:14:39.476Z,262.36
2022-08-23T08:15:34.462Z,256.41
2022-08-23T08:16:29.516Z,256.61
2022-08-23T08:17:27.496Z,270.80
2022-08-23T08:18:19.610Z,264.47
2022-08-23T08:19:14.627Z,256.61
2022-08-23T08:20:13.181Z,270.13
2022-08-23T08:21:08.709Z,259.66
2022-08-23T08:22:04.367Z,265.11
2022-08-23T08:23:00.561Z,271.02
2022-08-23T08:23:55.213Z,249.39
2022-08-23T08:24:51.017Z,269.47
2022-08-23T08:25:46.015Z,282.46
2022-08-23T08:26:41.129Z,281.01
2022-08-23T08:27:36.249Z,297.03
2022-08-23T08:28:31.445Z,292.53
2022-08-23T08:29:26.444Z,283.19
2022-08-23T08:30:21.477Z,279.57
2022-08-23T08:31:16.620Z,277.91
2022-08-23T08:32:13.744Z,274.65
2022-08-23T08:33:06.684Z,277.44
2022-08-23T08:34:01.821Z,262.99
2022-08-23T08:34:56.835Z,263.41
2022-08-23T08:35:59.817Z,265.11
2022-08-23T08:36:47.931Z,263.41
2022-08-23T08:37:42.050Z,265.54
2022-08-23T08:38:38.920Z,288.67
2022-08-23T08:39:33.737Z,300.29
2022-08-23T08:40:27.298Z,298.38
2022-08-23T08:41:22.814Z,297.03
2022-08-23T08:42:18.250Z,309.64
2022-08-23T08:43:16.894Z,319.29
2022-08-23T08:44:15.875Z,322.11
2022-08-23T08:45:07.659Z,319.91
2022-08-23T08:46:03.052Z,326.92
2022-08-23T08:46:58.564Z,310.52
2022-08-23T08:47:53.989Z,308.48
2022-08-23T08:48:49.522Z,323.38
2022-08-23T08:49:45.041Z,318.05
2022-08-23T08:50:40.622Z,322.11
2022-08-23T08:51:36.028Z,340.14
2022-08-23T08:52:32.637Z,353.33
2022-08-23T08:53:28.182Z,341.91
2022-08-23T08:54:23.727Z,348.08
2022-08-23T08:55:19.269Z,342.63
2022-08-23T08:56:16.509Z,348.08
2022-08-23T08:57:10.138Z,329.55
2022-08-23T08:58:05.280Z,323.06
2022-08-23T08:59:00.286Z,334.25
2022-08-23T08:59:55.381Z,337.69
2022-08-23T09:00:55.196Z,346.24
2022-08-23T09:01:46.443Z,345.15
2022-08-23T09:02:40.636Z,356.01
2022-08-23T09:03:35.584Z,352.95
2022-08-23T09:04:30.589Z,355.62
2022-08-23T09:05:25.568Z,378.17
2022-08-23T09:06:20.678Z,371.32
2022-08-23T09:07:15.727Z,373.01
2022-08-23T09:08:11.122Z,381.70
2022-08-23T09:09:06.504Z,369.23
2022-08-23T09:10:02.045Z,372.58
2022-08-23T09:10:58.571Z,385.23
2022-08-23T09:11:53.037Z,377.73
2022-08-23T09:12:48.172Z,377.73
2022-08-23T09:13:46.134Z,396.45
2022-08-23T09:14:38.158Z,415.73
2022-08-23T09:15:35.362Z,417.82
2022-08-23T09:16:30.434Z,420.71
2022-08-23T09:17:25.464Z,401.95
2022-08-23T09:18:20.482Z,390.65
2022-08-23T09:19:15.590Z,392.49
2022-08-23T09:20:10.619Z,407.85
2022-08-23T09:21:05.614Z,419.39
2022-08-23T09:22:00.738Z,421.78
2022-08-23T09:22:56.873Z,436.98
2022-08-23T09:24:00.258Z,460.20
2022-08-23T09:24:48.822Z,468.61
2022-08-23T09:25:43.376Z,471.59
2022-08-23T09:26:38.630Z,468.94
2022-08-23T09:27:34.206Z,456.11
2022-08-23T09:28:29.657Z,457.99
2022-08-23T09:29:25.146Z,469.93
2022-08-23T09:30:20.532Z,510.59
2022-08-23T09:31:15.991Z,564.16
2022-08-23T09:32:14.293Z,566.55
2022-08-23T09:33:06.034Z,561.31
2022-08-23T09:34:01.040Z,557.55
2022-08-23T09:34:56.032Z,567.03
2022-08-23T09:35:51.209Z,582.39
2022-08-23T09:36:46.180Z,578.85
2022-08-23T09:37:41.334Z,553.39
2022-08-23T09:38:42.873Z,600.21
2022-08-23T09:39:33.630Z,618.01
2022-08-23T09:40:28.646Z,610.65
2022-08-23T09:41:23.792Z,588.55
2022-08-23T09:42:19.732Z,587.52
2022-08-23T09:43:15.290Z,627.90
2022-08-23T09:44:10.692Z,610.09
2022-08-23T09:45:06.246Z,603.47
2022-08-23T09:46:01.678Z,604.02
2022-08-23T09:46:57.069Z,671.53
2022-08-23T09:47:52.668Z,745.90
2022-08-23T09:48:48.190Z,784.37
2022-08-23T09:49:43.860Z,800.36
2022-08-23T09:50:39.388Z,798.92
2022-08-23T09:51:35.128Z,799.88
2022-08-23T09:52:30.238Z,809.09
2022-08-23T09:53:25.662Z,804.70
2022-08-23T09:54:21.058Z,809.09
2022-08-23T09:55:16.194Z,818.52
2022-08-23T09:56:11.190Z,838.04
2022-08-23T09:57:06.298Z,900.20
2022-08-23T09:58:01.353Z,918.79
2022-08-23T09:58:56.448Z,915.64
2022-08-23T09:59:51.663Z,940.14
2022-08-23T10:00:46.663Z,961.82
2022-08-23T10:01:43.418Z,952.89
2022-08-23T10:02:38.567Z,975.16
2022-08-23T10:03:33.696Z,1065.44
2022-08-23T10:04:28.765Z,1108.80
2022-08-23T10:05:23.789Z,1131.36
2022-08-23T10:06:18.864Z,1158.85
2022-08-23T10:07:14.085Z,1259.43
2022-08-23T10:08:10.891Z,1258.25
2022-08-23T10:09:04.288Z,1329.68
2022-08-23T10:09:59.739Z,1432.40
2022-08-23T10:10:55.194Z,1480.04
2022-08-23T10:11:50.686Z,1414.19
2022-08-23T10:12:46.145Z,1406.74
2022-08-23T10:13:41.597Z,1204.87
2022-08-23T10:14:36.650Z,1034.88
2022-08-23T10:15:36.077Z,914.38
2022-08-23T10:16:26.819Z,1031.69
2022-08-23T10:17:23.057Z,1155.84
2022-08-23T10:18:18.105Z,1337.68
2022-08-23T10:19:13.185Z,1426.28
2022-08-23T10:20:08.231Z,1440.13
2022-08-23T10:21:03.245Z,1525.71
2022-08-23T10:21:58.346Z,1680.30
2022-08-23T10:22:53.784Z,1754.27
2022-08-23T10:23:49.363Z,1995.52
2022-08-23T10:24:44.667Z,2003.00
2022-08-23T10:25:40.123Z,1903.06
2022-08-23T10:26:35.607Z,1896.31
2022-08-23T10:27:31.202Z,1915.35
2022-08-23T10:28:26.667Z,1734.89
2022-08-23T10:29:21.732Z,1681.36
2022-08-23T10:30:16.767Z,1681.36
2022-08-23T10:31:11.863Z,1873.68
2022-08-23T10:32:07.054Z,2007.52
2022-08-23T10:33:01.985Z,2053.85
2022-08-23T10:33:57.009Z,2028.88
2022-08-23T10:34:52.055Z,1941.82
2022-08-23T10:35:47.133Z,1841.38
2022-08-23T10:36:42.172Z,1856.74
2022-08-23T10:37:37.345Z,1991.05
2022-08-23T10:38:32.238Z,1982.18
2022-08-23T10:39:27.282Z,1813.86
2022-08-23T10:40:22.658Z,1871.06
2022-08-23T10:41:18.084Z,2036.61
2022-08-23T10:42:13.551Z,2055.43
2022-08-23T10:43:09.013Z,2181.37
2022-08-23T10:44:04.052Z,2278.16
2022-08-23T10:44:59.101Z,2238.05
2022-08-23T10:45:58.307Z,2217.61
2022-08-23T10:46:50.389Z,2081.06
2022-08-23T10:47:44.342Z,1985.13
2022-08-23T10:48:39.407Z,1790.74
2022-08-23T10:49:34.632Z,1668.75
2022-08-23T10:50:29.649Z,1783.57
2022-08-23T10:51:31.838Z,1667.71
2022-08-23T10:52:20.913Z,1737.15
2022-08-23T10:53:14.757Z,2100.71
2022-08-23T10:54:09.780Z,2266.55
2022-08-23T10:55:04.830Z,2321.74
2022-08-23T10:55:59.893Z,2350.35
2022-08-23T10:56:54.919Z,2305.70
2022-08-23T10:57:50.020Z,2192.12
2022-08-23T10:58:45.076Z,1859.33
2022-08-23T10:59:40.120Z,1730.40
2022-08-23T11:00:35.311Z,1721.47
2022-08-23T11:01:30.837Z,1843.92
2022-08-23T11:02:25.943Z,1985.13
2022-08-23T11:03:23.474Z,2095.76
2022-08-23T11:04:17.052Z,1748.53
2022-08-23T11:05:11.172Z,1737.15
2022-08-23T11:06:06.209Z,1795.56
2022-08-23T11:07:01.231Z,2010.54
2022-08-23T11:07:56.369Z,2117.37
2022-08-23T11:08:51.287Z,2217.61
2022-08-23T11:09:46.347Z,2299.74
2022-08-23T11:10:41.396Z,2360.74
2022-08-23T11:11:37.459Z,2375.45
2022-08-23T11:12:31.807Z,2383.93
2022-08-23T11:13:27.255Z,2350.35
2022-08-23T11:14:22.609Z,2356.57
2022-08-23T11:15:18.070Z,2289.88
2022-08-23T11:16:13.610Z,1973.39
2022-08-23T11:17:08.536Z,2085.94
2022-08-23T11:18:03.710Z,2172.50
2022-08-23T11:18:58.868Z,2260.80
2022-08-23T11:19:53.896Z,2323.76
2022-08-23T11:20:48.943Z,2350.35
2022-08-23T11:21:44.007Z,2416.29
2022-08-23T11:22:39.065Z,2383.93
2022-08-23T11:23:34.118Z,2418.48
2022-08-23T11:24:29.315Z,2476.81
2022-08-23T11:25:24.223Z,2451.79
2022-08-23T11:26:20.786Z,2344.16
2022-08-23T11:27:15.846Z,1899.00
2022-08-23T11:28:10.891Z,1922.25
2022-08-23T11:29:05.965Z,2115.69